Time;durP1;ratioP1;P1;durP2;ratioP2;P2;SDS_P1;SDS_P2;PMS_P1;PMS_P2;Temp;Humidity;BMP_temperature;BMP_pressure;BME280_temperature;BME280_humidity;BME280_pressure;Samples;Min_cycle;Max_cycle;Signal;HPM_P1;HPM_P2
2023/04/17 00:01:51;;;;;;;9.32;5.45;;;16.40;39.80;;;;;;4937875;29;20043;-74
2023/04/17 00:04:17;;;;;;;6.95;5.40;;;16.40;39.80;;;;;;4936642;29;20044;-73
2023/04/17 00:06:43;;;;;;;8.88;5.95;;;16.40;39.80;;;;;;4936618;29;20051;-74
2023/04/17 00:09:10;;;;;;;8.88;6.25;;;16.40;39.80;;;;;;4936397;29;20039;-73
2023/04/17 00:11:36;;;;;;;8.63;5.60;;;16.40;39.80;;;;;;4936105;29;20082;-74
2023/04/17 00:14:02;;;;;;;9.25;6.05;;;16.40;39.90;;;;;;4935719;29;20063;-74
2023/04/17 00:16:28;;;;;;;9.20;5.75;;;16.40;39.80;;;;;;4936593;29;20123;-74
2023/04/17 00:18:54;;;;;;;10.93;5.50;;;16.40;39.80;;;;;;4902933;29;20402;-74
2023/04/17 00:21:21;;;;;;;10.07;5.60;;;16.30;39.80;;;;;;4908807;29;20043;-74
2023/04/17 00:23:46;;;;;;;10.25;5.68;;;16.30;39.90;;;;;;4935631;29;20043;-74
2023/04/17 00:26:12;;;;;;;7.78;5.32;;;16.40;39.90;;;;;;4936305;29;20042;-74
2023/04/17 00:28:41;;;;;;;11.82;5.88;;;16.30;39.90;;;;;;4920212;29;20058;-74
2023/04/17 00:31:07;;;;;;;8.55;5.47;;;16.30;40.10;;;;;;4935502;29;20036;-74
2023/04/17 00:33:34;;;;;;;9.52;6.53;;;16.30;40.10;;;;;;4936133;29;20739;-74
2023/04/17 00:36:00;;;;;;;8.25;5.93;;;16.30;40.10;;;;;;4936579;29;20035;-74
2023/04/17 00:38:26;;;;;;;14.25;6.47;;;16.30;40.00;;;;;;4917562;29;20073;-75
2023/04/17 00:40:52;;;;;;;10.43;6.38;;;16.30;40.00;;;;;;4936117;29;20090;-74
2023/04/17 00:43:18;;;;;;;8.52;5.78;;;16.30;40.00;;;;;;4918019;29;20624;-74
2023/04/17 00:45:47;;;;;;;9.10;5.78;;;16.30;40.00;;;;;;4918146;29;20055;-74
2023/04/17 00:48:15;;;;;;;9.63;6.15;;;16.30;40.10;;;;;;4924352;29;20615;-74
2023/04/17 00:50:43;;;;;;;9.07;5.70;;;16.30;40.10;;;;;;4919014;29;20090;-74
2023/04/17 00:53:09;;;;;;;8.07;5.53;;;16.30;40.10;;;;;;4889889;29;20046;-74
2023/04/17 00:55:36;;;;;;;9.55;5.88;;;16.30;40.10;;;;;;4936078;29;20414;-73
2023/04/17 00:58:04;;;;;;;9.10;6.53;;;16.30;40.10;;;;;;4934213;29;20514;-73
2023/04/17 01:00:30;;;;;;;9.95;5.60;;;16.20;40.00;;;;;;4935016;29;20065;-74
2023/04/17 01:02:59;;;;;;;10.35;6.22;;;16.20;40.00;;;;;;4919450;29;20562;-73
2023/04/17 01:05:26;;;;;;;9.13;6.47;;;16.20;40.00;;;;;;4917932;29;20032;-74
2023/04/17 01:07:53;;;;;;;10.77;6.93;;;16.20;40.00;;;;;;4918882;29;20498;-74
2023/04/17 01:10:20;;;;;;;12.35;6.40;;;16.20;39.90;;;;;;4919606;29;20216;-73
2023/04/17 01:12:48;;;;;;;10.35;5.72;;;16.20;40.00;;;;;;4935052;29;20855;-74
2023/04/17 01:15:15;;;;;;;8.73;6.57;;;16.20;40.10;;;;;;4911884;29;20052;-74
2023/04/17 01:17:41;;;;;;;8.25;6.00;;;16.20;40.10;;;;;;4899247;29;20052;-74
2023/04/17 01:20:09;;;;;;;10.18;6.57;;;16.20;40.00;;;;;;4898978;29;20042;-74
2023/04/17 01:22:36;;;;;;;11.52;6.90;;;16.20;40.30;;;;;;4898085;29;20040;-74
2023/04/17 01:25:04;;;;;;;9.40;6.53;;;16.20;40.00;;;;;;4898982;29;20044;-74
2023/04/17 01:27:34;;;;;;;10.85;6.72;;;16.20;40.00;;;;;;4889119;29;20082;-74
2023/04/17 01:30:01;;;;;;;8.32;6.47;;;16.10;39.90;;;;;;4871783;29;20027;-74
2023/04/17 01:32:30;;;;;;;9.38;6.45;;;16.20;40.00;;;;;;4899755;29;20032;-74
2023/04/17 01:34:56;;;;;;;10.93;6.20;;;16.10;40.00;;;;;;4876978;29;20107;-74
2023/04/17 01:37:23;;;;;;;8.43;6.10;;;16.20;40.00;;;;;;4898359;29;20570;-74
2023/04/17 01:39:49;;;;;;;9.75;6.60;;;16.10;39.90;;;;;;4899510;29;20035;-74
2023/04/17 01:42:15;;;;;;;10.07;6.65;;;16.10;39.90;;;;;;4898581;29;20509;-74
2023/04/17 01:44:41;;;;;;;10.70;6.57;;;16.10;39.90;;;;;;4915782;29;20040;-73
2023/04/17 01:47:07;;;;;;;8.77;6.75;;;16.10;39.90;;;;;;4899394;29;20138;-74
2023/04/17 01:49:33;;;;;;;10.07;6.88;;;16.10;40.10;;;;;;4914311;29;20515;-73
2023/04/17 01:51:59;;;;;;;10.55;6.90;;;16.10;40.00;;;;;;4900472;29;20526;-74
2023/04/17 01:54:25;;;;;;;11.55;7.35;;;16.10;40.10;;;;;;4918466;29;20036;-74
2023/04/17 01:56:51;;;;;;;12.20;7.40;;;16.10;40.00;;;;;;4920108;29;20046;-73
2023/04/17 01:59:17;;;;;;;11.95;6.93;;;16.10;40.00;;;;;;4901949;29;20035;-74
2023/04/17 02:01:44;;;;;;;9.30;6.93;;;16.10;40.00;;;;;;4902301;29;20043;-74
2023/04/17 02:04:10;;;;;;;9.55;6.70;;;16.10;40.00;;;;;;4903030;29;20528;-75
2023/04/17 02:06:36;;;;;;;9.30;6.90;;;16.00;40.00;;;;;;4894862;29;20040;-74
2023/04/17 02:09:02;;;;;;;9.73;7.15;;;16.00;40.00;;;;;;4903449;29;20039;-74
2023/04/17 02:11:28;;;;;;;9.68;6.93;;;16.00;40.00;;;;;;4901636;29;20365;-74
2023/04/17 02:13:54;;;;;;;10.93;7.22;;;16.00;40.00;;;;;;4898891;29;20474;-74
2023/04/17 02:16:21;;;;;;;10.73;7.45;;;16.00;40.10;;;;;;4901848;29;20040;-75
2023/04/17 02:18:49;;;;;;;13.50;7.97;;;16.00;40.00;;;;;;4901437;29;20038;-74
2023/04/17 02:21:15;;;;;;;10.35;7.38;;;16.00;40.10;;;;;;4903053;29;20032;-73
2023/04/17 02:23:41;;;;;;;10.63;7.47;;;16.00;40.10;;;;;;4918198;29;20036;-74
2023/04/17 02:26:07;;;;;;;10.60;7.40;;;16.00;40.20;;;;;;4886468;29;20039;-74
2023/04/17 02:28:33;;;;;;;10.10;7.60;;;15.90;40.10;;;;;;4919009;29;20032;-74
2023/04/17 02:31:06;;;;;;;11.95;8.00;;;16.00;40.10;;;;;;4918995;29;20044;-73
2023/04/17 02:33:32;;;;;;;11.63;8.38;;;16.00;40.10;;;;;;4890145;29;20470;-73
2023/04/17 02:35:58;;;;;;;13.90;8.75;;;16.00;40.10;;;;;;4902988;29;20423;-74
2023/04/17 02:38:32;;;;;;;11.63;7.80;;;15.90;40.10;;;;;;4901712;29;20040;-74
2023/04/17 02:40:58;;;;;;;12.50;8.18;;;15.90;40.10;;;;;;4901505;29;20468;-74
2023/04/17 02:43:25;;;;;;;11.63;8.15;;;15.90;40.10;;;;;;4900078;29;20034;-73
2023/04/17 02:45:51;;;;;;;13.23;7.97;;;15.90;40.20;;;;;;4886827;29;20039;-74
2023/04/17 02:48:18;;;;;;;10.30;8.05;;;15.90;40.20;;;;;;4919364;29;20031;-74
2023/04/17 02:50:44;;;;;;;12.25;8.35;;;15.90;40.20;;;;;;4901260;29;20415;-73
2023/04/17 02:53:15;;;;;;;10.98;8.18;;;15.90;40.20;;;;;;4905490;29;20043;-73
2023/04/17 02:55:41;;;;;;;13.20;8.73;;;15.90;40.30;;;;;;4901138;29;20048;-74
2023/04/17 02:58:07;;;;;;;11.18;8.30;;;15.90;40.20;;;;;;4901155;29;20055;-73
2023/04/17 03:00:33;;;;;;;11.05;8.50;;;15.90;40.20;;;;;;4901614;29;20043;-74
2023/04/17 03:02:59;;;;;;;12.32;8.50;;;15.90;40.20;;;;;;4900909;29;20043;-74
2023/04/17 03:05:29;;;;;;;12.30;8.85;;;15.90;40.20;;;;;;4901471;29;20168;-74
2023/04/17 03:07:58;;;;;;;12.07;8.80;;;15.90;40.20;;;;;;4899948;29;20051;-74
2023/04/17 03:10:24;;;;;;;13.02;8.88;;;15.90;40.20;;;;;;4858049;29;20038;-73
2023/04/17 03:12:50;;;;;;;13.80;10.05;;;15.90;40.10;;;;;;4878925;29;20040;-73
2023/04/17 03:15:16;;;;;;;13.10;9.05;;;15.90;40.10;;;;;;4900886;29;20048;-73
2023/04/17 03:17:43;;;;;;;13.93;9.85;;;15.90;40.10;;;;;;4919933;29;20311;-74
2023/04/17 03:20:09;;;;;;;14.23;9.27;;;15.90;40.10;;;;;;4920639;29;20093;-74
2023/04/17 03:22:35;;;;;;;14.25;9.35;;;15.90;40.10;;;;;;4938304;29;20042;-73
2023/04/17 03:25:03;;;;;;;14.00;9.38;;;15.90;40.00;;;;;;4920062;29;20178;-73
2023/04/17 03:27:38;;;;;;;15.07;9.00;;;15.90;40.10;;;;;;4918696;29;20517;-74
2023/04/17 03:30:06;;;;;;;12.93;9.05;;;15.90;40.00;;;;;;4904971;29;20039;-73
2023/04/17 03:32:33;;;;;;;14.25;9.35;;;15.80;39.90;;;;;;4920746;29;20495;-73
2023/04/17 03:34:59;;;;;;;16.20;9.57;;;15.90;39.90;;;;;;4935137;29;20043;-73
2023/04/17 03:37:26;;;;;;;12.77;9.43;;;15.90;39.90;;;;;;4917491;29;20127;-73
2023/04/17 03:39:52;;;;;;;12.90;9.30;;;15.80;39.90;;;;;;4919200;29;20126;-73
2023/04/17 03:42:18;;;;;;;15.55;10.25;;;15.90;40.10;;;;;;4919248;29;20562;-73
2023/04/17 03:44:44;;;;;;;15.95;9.75;;;15.80;40.10;;;;;;4918982;29;20035;-73
2023/04/17 03:47:10;;;;;;;11.93;9.32;;;15.90;40.20;;;;;;4931231;29;20049;-73
2023/04/17 03:49:36;;;;;;;12.50;8.75;;;15.90;40.20;;;;;;4917773;29;20044;-73
2023/04/17 03:52:02;;;;;;;11.90;8.52;;;15.90;40.20;;;;;;4919028;29;20044;-73
2023/04/17 03:54:34;;;;;;;14.70;9.82;;;15.80;40.20;;;;;;4918982;29;20414;-72
2023/04/17 03:57:02;;;;;;;13.60;9.23;;;15.90;40.30;;;;;;4920009;29;20099;-73
2023/04/17 03:59:30;;;;;;;12.32;9.15;;;15.80;40.30;;;;;;4919184;29;20078;-73
2023/04/17 04:01:57;;;;;;;16.17;9.73;;;15.80;40.30;;;;;;4936840;29;20035;-73
2023/04/17 04:04:24;;;;;;;14.73;9.13;;;15.90;40.40;;;;;;4920129;29;20067;-73
2023/04/17 04:07:00;;;;;;;19.83;10.25;;;15.90;40.40;;;;;;4935831;29;20048;-73
2023/04/17 04:09:27;;;;;;;16.17;10.00;;;15.90;40.50;;;;;;4916226;29;20047;-74
2023/04/17 04:11:56;;;;;;;14.60;9.95;;;15.90;40.40;;;;;;4918270;29;20050;-74
2023/04/17 04:14:22;;;;;;;17.75;9.57;;;15.90;40.50;;;;;;4917427;28;20055;-74
2023/04/17 04:16:48;;;;;;;13.93;10.15;;;15.90;40.40;;;;;;4918678;29;20035;-74
2023/04/17 04:19:14;;;;;;;16.73;10.00;;;15.90;40.40;;;;;;4918629;29;20035;-74
2023/04/17 04:21:43;;;;;;;14.75;10.65;;;15.90;40.30;;;;;;4902931;29;20039;-73
2023/04/17 04:24:12;;;;;;;13.65;9.80;;;15.90;40.40;;;;;;4938004;29;20630;-73
2023/04/17 04:26:40;;;;;;;16.02;10.40;;;15.90;40.20;;;;;;4922416;29;20514;-74
2023/04/17 04:29:07;;;;;;;13.90;10.07;;;15.90;40.30;;;;;;4922869;29;20036;-75
2023/04/17 04:31:49;;;;;;;17.90;11.25;;;16.00;40.20;;;;;;4921622;29;20035;-74
2023/04/17 04:34:17;;;;;;;14.73;10.32;;;16.00;40.20;;;;;;4931142;29;20063;-74
2023/04/17 04:36:48;;;;;;;14.60;10.43;;;15.90;40.10;;;;;;4922419;29;20538;-74
2023/04/17 04:39:28;;;;;;;14.45;10.85;;;15.90;40.10;;;;;;4936642;29;20054;-73
2023/04/17 04:41:55;;;;;;;15.13;10.20;;;16.00;40.30;;;;;;4919813;29;20054;-74
2023/04/17 04:44:24;;;;;;;13.93;9.65;;;16.00;40.40;;;;;;4920223;29;20039;-74
2023/04/17 04:46:55;;;;;;;12.95;9.60;;;16.00;40.60;;;;;;4911719;29;20043;-74
2023/04/17 04:49:21;;;;;;;15.88;10.38;;;16.00;41.00;;;;;;4920117;29;20094;-74
2023/04/17 04:51:47;;;;;;;13.63;9.48;;;16.10;41.40;;;;;;4904985;29;20047;-74
2023/04/17 04:54:13;;;;;;;15.18;9.75;;;16.10;42.00;;;;;;4922924;29;20578;-73
2023/04/17 04:56:46;;;;;;;15.07;10.20;;;16.10;42.10;;;;;;4919682;29;20046;-73
2023/04/17 04:59:14;;;;;;;13.18;9.57;;;16.20;42.40;;;;;;4922847;29;20442;-73
2023/04/17 05:01:45;;;;;;;13.65;9.30;;;16.20;42.60;;;;;;4935806;29;20119;-74
2023/04/17 05:04:13;;;;;;;14.55;9.90;;;16.20;42.70;;;;;;4923000;29;20085;-74
2023/04/17 05:06:39;;;;;;;15.30;9.95;;;16.20;42.80;;;;;;4917849;29;20039;-73
2023/04/17 05:09:05;;;;;;;14.32;9.73;;;16.20;42.90;;;;;;4922551;29;20047;-73
2023/04/17 05:11:32;;;;;;;14.32;9.35;;;16.30;42.80;;;;;;4936360;29;20043;-73
2023/04/17 05:14:00;;;;;;;15.68;10.05;;;16.30;42.90;;;;;;4918142;29;20036;-73
2023/04/17 05:16:34;;;;;;;15.25;10.27;;;16.30;42.70;;;;;;4918602;29;20040;-74
2023/04/17 05:19:00;;;;;;;14.30;9.77;;;16.30;42.70;;;;;;4936137;29;20031;-74
2023/04/17 05:21:46;;;;;;;13.70;9.45;;;16.30;42.60;;;;;;4918242;29;20558;-74
2023/04/17 05:24:12;;;;;;;13.75;10.00;;;16.30;42.40;;;;;;4918640;29;20035;-74
2023/04/17 05:26:38;;;;;;;15.45;10.80;;;16.30;42.20;;;;;;4918207;29;20054;-74
2023/04/17 05:29:06;;;;;;;14.82;10.05;;;16.40;42.20;;;;;;4918437;29;20032;-74
2023/04/17 05:31:33;;;;;;;15.52;10.55;;;16.40;42.10;;;;;;4918947;29;20130;-73
2023/04/17 05:34:03;;;;;;;14.48;10.27;;;16.40;42.00;;;;;;4888510;29;20146;-74
2023/04/17 05:36:30;;;;;;;15.02;10.10;;;16.40;41.90;;;;;;4918387;29;20446;-74
2023/04/17 05:38:58;;;;;;;15.70;9.95;;;16.40;41.90;;;;;;4906594;29;20023;-73
2023/04/17 05:41:26;;;;;;;16.05;10.52;;;16.40;41.70;;;;;;4936530;29;20525;-73
2023/04/17 05:43:52;;;;;;;15.38;11.07;;;16.40;41.60;;;;;;4935532;29;20051;-73
2023/04/17 05:46:18;;;;;;;16.40;10.88;;;16.40;41.50;;;;;;4935813;29;20415;-74
2023/04/17 05:48:44;;;;;;;17.38;10.68;;;16.40;41.40;;;;;;4916874;29;20062;-74
2023/04/17 05:51:11;;;;;;;14.63;10.18;;;16.40;41.50;;;;;;4924937;29;20063;-74
2023/04/17 05:53:37;;;;;;;13.82;9.63;;;16.50;41.60;;;;;;4918270;29;20094;-74
2023/04/17 05:56:03;;;;;;;14.85;10.10;;;16.40;41.70;;;;;;4918353;29;20154;-74
2023/04/17 05:58:34;;;;;;;13.52;9.70;;;16.50;41.70;;;;;;4907778;29;20035;-74
2023/04/17 06:01:05;;;;;;;13.10;9.82;;;16.50;41.70;;;;;;4917811;29;20588;-74
2023/04/17 06:03:32;;;;;;;15.48;10.18;;;16.50;41.80;;;;;;4917622;29;20514;-74
2023/04/17 06:06:05;;;;;;;15.07;10.27;;;16.50;41.80;;;;;;4903508;29;20039;-74
2023/04/17 06:08:31;;;;;;;13.65;10.13;;;16.60;41.70;;;;;;4906837;29;20039;-74
2023/04/17 06:10:57;;;;;;;16.17;10.93;;;16.60;41.60;;;;;;4917816;29;20521;-74
2023/04/17 06:13:23;;;;;;;12.95;10.25;;;16.60;41.70;;;;;;4918927;29;20040;-74
2023/04/17 06:15:50;;;;;;;14.40;9.98;;;16.60;41.70;;;;;;4902517;29;20729;-73
2023/04/17 06:18:16;;;;;;;13.20;9.90;;;16.60;41.60;;;;;;4918803;29;20071;-74
2023/04/17 06:20:44;;;;;;;13.45;9.45;;;16.70;41.60;;;;;;4918491;29;20622;-74
2023/04/17 06:23:10;;;;;;;16.75;10.90;;;16.70;41.50;;;;;;4918189;29;20067;-73
2023/04/17 06:25:36;;;;;;;15.15;12.13;;;16.70;41.10;;;;;;4915680;29;20174;-74
2023/04/17 06:28:02;;;;;;;22.35;13.75;;;16.70;39.80;;;;;;4932955;29;20051;-74
2023/04/17 06:30:28;;;;;;;24.35;13.63;;;16.70;38.90;;;;;;4931880;29;20146;-74
2023/04/17 06:32:56;;;;;;;19.77;13.10;;;16.60;38.40;;;;;;4916511;29;20039;-74
2023/04/17 06:35:22;;;;;;;19.27;13.90;;;16.60;38.20;;;;;;4915665;29;20050;-74
2023/04/17 06:37:56;;;;;;;17.13;13.00;;;16.50;37.70;;;;;;4916424;29;20036;-74
2023/04/17 06:40:22;;;;;;;18.83;13.43;;;16.50;37.50;;;;;;4891549;29;20032;-74
2023/04/17 06:42:50;;;;;;;21.80;13.90;;;16.50;37.30;;;;;;4919480;29;20037;-73
2023/04/17 06:45:23;;;;;;;21.85;14.68;;;16.40;37.20;;;;;;4882286;29;20134;-74
2023/04/17 06:47:49;;;;;;;19.63;13.52;;;16.40;36.90;;;;;;4923549;29;20031;-73
2023/04/17 06:50:17;;;;;;;17.85;13.25;;;16.40;36.90;;;;;;4917265;29;20594;-74
2023/04/17 06:52:43;;;;;;;19.45;13.75;;;16.40;37.00;;;;;;4935859;29;20069;-74
2023/04/17 06:55:09;;;;;;;17.52;14.10;;;16.40;37.20;;;;;;4936335;29;20094;-74
2023/04/17 06:57:35;;;;;;;18.83;14.15;;;16.30;36.90;;;;;;4936086;29;20487;-73
2023/04/17 07:00:02;;;;;;;21.55;13.63;;;16.30;36.70;;;;;;4935593;29;20043;-74
2023/04/17 07:02:29;;;;;;;19.58;13.55;;;16.30;36.90;;;;;;4935795;29;20098;-74
2023/04/17 07:04:55;;;;;;;21.27;13.98;;;16.30;37.00;;;;;;4918934;29;20044;-73
2023/04/17 07:07:21;;;;;;;18.40;13.70;;;16.30;37.20;;;;;;4936042;29;20107;-73
2023/04/17 07:09:47;;;;;;;19.58;14.07;;;16.20;37.20;;;;;;4917588;29;20039;-73
2023/04/17 07:12:16;;;;;;;19.45;14.10;;;16.20;37.10;;;;;;4918775;29;20039;-74
2023/04/17 07:14:42;;;;;;;21.42;14.40;;;16.20;37.00;;;;;;4935492;29;20066;-73
2023/04/17 07:17:08;;;;;;;19.45;13.45;;;16.20;36.90;;;;;;4935012;29;20032;-73
2023/04/17 07:19:35;;;;;;;22.52;14.40;;;16.20;37.10;;;;;;4936228;29;20040;-73
2023/04/17 07:22:01;;;;;;;20.98;13.75;;;16.20;36.90;;;;;;4920501;29;20039;-74
2023/04/17 07:24:27;;;;;;;23.80;14.25;;;16.20;36.70;;;;;;4917400;29;20410;-73
2023/04/17 07:26:53;;;;;;;19.83;13.32;;;16.20;36.80;;;;;;4918971;29;20043;-73
2023/04/17 07:29:19;;;;;;;19.95;13.57;;;16.20;36.60;;;;;;4935629;29;20043;-74
2023/04/17 07:31:45;;;;;;;18.75;12.75;;;16.20;36.60;;;;;;4934280;29;20054;-73
2023/04/17 07:34:11;;;;;;;18.08;12.73;;;16.20;36.50;;;;;;4918263;29;20039;-74
2023/04/17 07:36:37;;;;;;;18.08;11.98;;;16.20;36.30;;;;;;4934054;29;20043;-73
2023/04/17 07:39:03;;;;;;;18.60;13.27;;;16.20;36.30;;;;;;4935988;29;20454;-73
2023/04/17 07:41:29;;;;;;;15.82;11.43;;;16.20;36.40;;;;;;4935078;29;20097;-73
2023/04/17 07:43:56;;;;;;;16.92;11.93;;;16.20;36.60;;;;;;4935646;29;20484;-74
2023/04/17 07:46:22;;;;;;;19.38;11.52;;;16.20;36.50;;;;;;4918031;29;20036;-73
2023/04/17 07:48:48;;;;;;;17.52;11.35;;;16.30;36.40;;;;;;4934442;28;20587;-74
2023/04/17 07:51:15;;;;;;;16.00;10.95;;;16.30;36.50;;;;;;4900604;29;20027;-73
2023/04/17 07:53:41;;;;;;;12.43;10.02;;;16.30;36.60;;;;;;4935318;29;20043;-74
2023/04/17 07:56:07;;;;;;;13.05;10.52;;;16.40;36.60;;;;;;4934511;29;20514;-74
2023/04/17 07:58:34;;;;;;;12.57;10.18;;;16.40;36.40;;;;;;4935714;29;20032;-74
2023/04/17 08:01:04;;;;;;;16.05;9.88;;;16.40;36.30;;;;;;4932633;29;20036;-74
2023/04/17 08:03:30;;;;;;;13.85;9.25;;;16.50;36.50;;;;;;4935039;29;20039;-74
2023/04/17 08:05:57;;;;;;;10.25;9.15;;;16.50;36.50;;;;;;4935115;29;20030;-74
2023/04/17 08:08:23;;;;;;;10.63;8.27;;;16.60;36.50;;;;;;4934874;29;20605;-74
2023/04/17 08:10:49;;;;;;;10.75;8.45;;;16.60;36.50;;;;;;4933866;29;20033;-73
2023/04/17 08:13:15;;;;;;;11.98;7.90;;;16.70;36.30;;;;;;4934961;29;20066;-73
2023/04/17 08:15:42;;;;;;;10.15;7.38;;;16.70;36.20;;;;;;4934297;28;20059;-74
2023/04/17 08:18:09;;;;;;;11.20;7.50;;;16.80;36.30;;;;;;4934894;29;20039;-73
2023/04/17 08:20:35;;;;;;;9.48;7.43;;;16.80;36.30;;;;;;4917100;29;20036;-74
2023/04/17 08:23:03;;;;;;;10.43;7.45;;;16.80;36.10;;;;;;4933995;29;20039;-73
2023/04/17 08:25:29;;;;;;;11.88;7.53;;;16.80;36.00;;;;;;4933294;29;20449;-74
2023/04/17 08:27:55;;;;;;;9.93;7.38;;;16.90;36.30;;;;;;4935033;29;20072;-74
2023/04/17 08:30:22;;;;;;;10.38;7.28;;;17.00;36.30;;;;;;4934722;29;20066;-73
2023/04/17 08:32:49;;;;;;;10.18;7.68;;;17.00;36.20;;;;;;4934702;29;20035;-74
2023/04/17 08:35:16;;;;;;;11.10;7.75;;;17.00;36.00;;;;;;4933910;29;20392;-74
2023/04/17 08:37:45;;;;;;;8.68;7.72;;;17.10;35.90;;;;;;4933762;29;20059;-72
2023/04/17 08:40:12;;;;;;;10.85;7.50;;;17.10;35.80;;;;;;4935034;29;20462;-73
2023/04/17 08:42:42;;;;;;;11.05;7.88;;;17.10;36.00;;;;;;4923990;29;20378;-74
2023/04/17 08:45:10;;;;;;;9.25;7.35;;;17.20;36.00;;;;;;4934703;29;20129;-73
2023/04/17 08:47:41;;;;;;;10.43;6.90;;;17.20;36.40;;;;;;4936126;29;20032;-75
2023/04/17 08:50:15;;;;;;;12.30;7.15;;;17.30;36.30;;;;;;4935657;29;20047;-72
2023/04/17 08:52:46;;;;;;;7.65;6.45;;;17.30;36.00;;;;;;4918970;29;20330;-73
2023/04/17 08:55:14;;;;;;;13.68;6.97;;;17.40;36.10;;;;;;4907908;29;20052;-72
2023/04/17 08:57:58;;;;;;;10.65;6.90;;;17.40;36.00;;;;;;4936234;29;20031;-73
2023/04/17 09:00:32;;;;;;;7.32;5.80;;;17.40;36.10;;;;;;4936647;28;20747;-73
2023/04/17 09:03:00;;;;;;;8.93;7.03;;;17.40;36.30;;;;;;4937056;29;20424;-73
2023/04/17 09:05:32;;;;;;;8.43;6.68;;;17.50;36.10;;;;;;4935010;29;20043;-73
2023/04/17 09:08:16;;;;;;;9.10;6.57;;;17.50;36.00;;;;;;4919269;29;20511;-73
2023/04/17 09:10:49;;;;;;;11.02;6.70;;;17.60;36.10;;;;;;4918551;29;20445;-73
2023/04/17 09:13:18;;;;;;;12.98;6.63;;;17.60;35.80;;;;;;4937428;29;20040;-73
2023/04/17 09:15:47;;;;;;;10.48;6.25;;;17.60;36.00;;;;;;4937121;29;20101;-74
2023/04/17 09:18:29;;;;;;;9.38;6.35;;;17.60;36.10;;;;;;4935656;29;20458;-73
2023/04/17 09:20:58;;;;;;;8.68;6.20;;;17.70;36.10;;;;;;4918830;29;20483;-73
2023/04/17 09:23:29;;;;;;;9.95;6.28;;;17.70;36.20;;;;;;4935457;29;20522;-73
2023/04/17 09:26:24;;;;;;;8.48;6.50;;;17.70;36.20;;;;;;4935815;29;20032;-73
2023/04/17 09:29:03;;;;;;;8.10;6.13;;;17.70;36.20;;;;;;4919417;29;20130;-74
2023/04/17 09:31:30;;;;;;;8.90;5.97;;;17.80;36.00;;;;;;4932858;29;20466;-74
2023/04/17 09:33:58;;;;;;;8.30;6.28;;;17.80;35.60;;;;;;4933067;29;20043;-74
2023/04/17 09:36:26;;;;;;;7.93;5.90;;;17.70;35.80;;;;;;4915703;29;20039;-73
2023/04/17 09:38:52;;;;;;;8.68;6.18;;;17.80;35.70;;;;;;4933552;29;20046;-73
2023/04/17 09:41:27;;;;;;;10.63;6.43;;;17.80;35.40;;;;;;4914311;29;20039;-73
2023/04/17 09:43:54;;;;;;;9.18;5.90;;;17.80;35.50;;;;;;4900316;29;20032;-75
2023/04/17 09:46:49;;;;;;;8.55;6.10;;;17.90;35.50;;;;;;4933369;29;20090;-73
2023/04/17 09:49:41;;;;;;;8.40;6.40;;;17.90;35.70;;;;;;4898819;29;20035;-74
2023/04/17 09:52:07;;;;;;;8.05;6.10;;;17.90;35.40;;;;;;4920818;29;20032;-74
2023/04/17 09:54:36;;;;;;;7.20;6.13;;;17.90;35.20;;;;;;4931891;29;20461;-74
2023/04/17 09:57:07;;;;;;;9.80;6.95;;;18.00;35.60;;;;;;4933255;29;20175;-74
2023/04/17 09:59:37;;;;;;;9.55;6.65;;;17.90;35.40;;;;;;4933202;29;20459;-74
2023/04/17 10:02:06;;;;;;;7.43;6.38;;;18.00;35.10;;;;;;4931458;29;20385;-74
2023/04/17 10:04:32;;;;;;;8.98;6.53;;;18.00;34.80;;;;;;4936948;29;20526;-74
2023/04/17 10:06:58;;;;;;;8.98;6.30;;;18.00;35.10;;;;;;4936022;29;20138;-74
2023/04/17 10:09:24;;;;;;;8.00;5.30;;;18.00;34.60;;;;;;4902424;29;20126;-74
2023/04/17 10:11:51;;;;;;;7.32;5.28;;;18.00;34.70;;;;;;4934607;29;20537;-73
2023/04/17 10:14:32;;;;;;;6.53;4.72;;;18.00;34.30;;;;;;4935172;29;20078;-74
2023/04/17 10:16:58;;;;;;;7.53;4.75;;;18.00;34.50;;;;;;4936757;29;20051;-73
2023/04/17 10:19:32;;;;;;;7.03;4.82;;;18.10;34.80;;;;;;4936942;29;20039;-74
2023/04/17 10:22:19;;;;;;;6.03;4.90;;;18.00;34.70;;;;;;4935523;29;20036;-74
2023/04/17 10:25:12;;;;;;;7.07;4.63;;;18.10;34.80;;;;;;4908403;29;20035;-74
2023/04/17 10:27:41;;;;;;;10.40;4.60;;;18.10;34.80;;;;;;4928251;29;20039;-73
2023/04/17 10:30:09;;;;;;;6.55;4.68;;;18.10;34.60;;;;;;4937590;29;20311;-74
2023/04/17 10:32:35;;;;;;;4.72;4.00;;;18.10;34.50;;;;;;4920875;29;20032;-74
2023/04/17 10:35:21;;;;;;;5.93;4.43;;;18.10;34.70;;;;;;4936052;29;20043;-74
2023/04/17 10:37:49;;;;;;;6.85;4.68;;;18.10;34.70;;;;;;4936484;29;20059;-73
2023/04/17 10:40:26;;;;;;;6.55;5.13;;;18.10;34.50;;;;;;4935344;29;20032;-73
2023/04/17 10:43:13;;;;;;;6.22;4.63;;;18.20;34.50;;;;;;4939136;29;20102;-73
2023/04/17 10:45:56;;;;;;;5.97;4.63;;;18.20;34.50;;;;;;4938845;29;20035;-73
2023/04/17 10:48:28;;;;;;;6.75;4.50;;;18.20;34.80;;;;;;4923487;29;20459;-73
2023/04/17 10:50:55;;;;;;;6.88;4.45;;;18.20;35.20;;;;;;4938537;29;20398;-73
2023/04/17 10:53:37;;;;;;;5.72;4.45;;;18.20;35.00;;;;;;4938962;29;20384;-72
2023/04/17 10:56:03;;;;;;;6.85;4.47;;;18.20;35.00;;;;;;4920568;29;20160;-73
2023/04/17 10:58:29;;;;;;;4.82;4.20;;;18.20;34.90;;;;;;4919670;29;20057;-73
2023/04/17 11:00:55;;;;;;;6.80;4.65;;;18.30;35.10;;;;;;4921975;29;20039;-73
2023/04/17 11:03:25;;;;;;;6.15;4.40;;;18.30;35.00;;;;;;4937656;29;20067;-73
2023/04/17 11:05:51;;;;;;;6.75;4.60;;;18.30;34.90;;;;;;4939061;29;20123;-73
2023/04/17 11:08:17;;;;;;;7.18;4.32;;;18.30;34.70;;;;;;4902970;29;20035;-74
2023/04/17 11:10:43;;;;;;;8.80;4.53;;;18.30;34.40;;;;;;4935525;29;20047;-74
2023/04/17 11:13:09;;;;;;;7.30;4.80;;;18.30;34.30;;;;;;4917678;29;20035;-73
2023/04/17 11:15:35;;;;;;;9.60;5.00;;;18.30;34.30;;;;;;4908324;29;20138;-73
2023/04/17 11:18:02;;;;;;;5.28;4.30;;;18.30;34.50;;;;;;4937273;29;20071;-72
2023/04/17 11:20:30;;;;;;;5.30;4.35;;;18.30;34.40;;;;;;4937601;29;20438;-73
2023/04/17 11:23:00;;;;;;;6.20;4.78;;;18.30;34.30;;;;;;4937850;29;20115;-73
2023/04/17 11:25:32;;;;;;;5.75;4.32;;;18.30;34.40;;;;;;4937649;29;20035;-72
2023/04/17 11:28:00;;;;;;;7.20;4.70;;;18.30;34.60;;;;;;4937920;29;20526;-73
2023/04/17 11:30:34;;;;;;;5.70;4.45;;;18.30;34.60;;;;;;4910007;29;20035;-72
2023/04/17 11:33:01;;;;;;;7.30;4.97;;;18.30;34.70;;;;;;4937703;29;20043;-73
2023/04/17 11:35:31;;;;;;;6.82;4.80;;;18.30;34.70;;;;;;4938513;29;20098;-75
2023/04/17 11:38:20;;;;;;;6.97;4.10;;;18.30;34.70;;;;;;4938099;29;20557;-73
2023/04/17 11:40:54;;;;;;;6.18;4.63;;;18.40;34.80;;;;;;4937880;29;20090;-75
2023/04/17 11:43:21;;;;;;;5.88;4.63;;;18.30;34.50;;;;;;4938087;29;20355;-73
2023/04/17 11:45:50;;;;;;;5.47;4.55;;;18.30;34.40;;;;;;4908836;29;20035;-73
2023/04/17 11:48:21;;;;;;;5.45;4.32;;;18.30;34.30;;;;;;4920581;29;20027;-73
2023/04/17 11:50:47;;;;;;;6.75;4.50;;;18.40;34.20;;;;;;4938163;29;20059;-73
2023/04/17 11:53:17;;;;;;;5.22;4.38;;;18.40;34.40;;;;;;4936279;29;20066;-73
2023/04/17 11:55:44;;;;;;;6.70;4.40;;;18.40;34.60;;;;;;4936780;29;20063;-73
2023/04/17 11:58:12;;;;;;;7.15;4.70;;;18.40;34.60;;;;;;4938097;29;20039;-73
2023/04/17 12:00:39;;;;;;;5.30;4.32;;;18.30;34.50;;;;;;4938222;29;20372;-72
2023/04/17 12:03:34;;;;;;;4.75;4.00;;;18.40;34.70;;;;;;4919530;29;20138;-75
2023/04/17 12:06:05;;;;;;;4.38;3.63;;;18.40;34.60;;;;;;4938093;29;20130;-73
2023/04/17 12:08:44;;;;;;;4.68;3.72;;;18.40;34.50;;;;;;4937110;29;20055;-74
2023/04/17 12:11:23;;;;;;;6.75;3.80;;;18.40;34.60;;;;;;4937460;29;20471;-73
2023/04/17 12:13:54;;;;;;;6.10;3.90;;;18.40;34.30;;;;;;4936730;29;20039;-73
2023/04/17 12:16:20;;;;;;;4.15;3.42;;;18.40;34.20;;;;;;4903543;29;20463;-73
2023/04/17 12:18:46;;;;;;;4.18;3.05;;;18.40;34.30;;;;;;4919003;29;20036;-73
2023/04/17 12:21:13;;;;;;;4.90;3.72;;;18.40;34.30;;;;;;4918056;29;20032;-72
2023/04/17 12:23:40;;;;;;;4.93;3.47;;;18.40;34.40;;;;;;4917541;29;20038;-75
2023/04/17 12:26:06;;;;;;;6.55;3.47;;;18.40;34.90;;;;;;4917669;29;20095;-73
2023/04/17 12:28:32;;;;;;;4.28;3.42;;;18.40;34.70;;;;;;4900488;29;20048;-73
2023/04/17 12:30:58;;;;;;;8.40;3.70;;;18.50;34.80;;;;;;4917656;29;20397;-73
2023/04/17 12:33:25;;;;;;;6.93;3.80;;;18.50;34.60;;;;;;4918200;29;20122;-73
2023/04/17 12:35:51;;;;;;;6.55;4.10;;;18.50;34.50;;;;;;4918660;29;20323;-73
2023/04/17 12:38:17;;;;;;;5.28;3.42;;;18.50;34.50;;;;;;4917722;29;20299;-73
2023/04/17 12:40:44;;;;;;;6.47;3.78;;;18.50;34.40;;;;;;4918646;29;20039;-73
2023/04/17 12:43:10;;;;;;;5.32;3.75;;;18.50;34.40;;;;;;4900536;29;20113;-73
2023/04/17 12:45:37;;;;;;;7.13;4.10;;;18.50;34.30;;;;;;4917094;29;20070;-73